Terminal Aerodrome Forecast
Issued by NWS

Home | Current Version | Previous Version | Text Only | Print | Product List | Glossary On
Versions: 1 2 3 4 5 6 7 8 9 10 11 12 13 14 15
000
FTUS43 KILX 250000 AAA
TAFDEC
TAF AMD
KDEC 250007Z 2500/2524 15014G20KT P6SM VCSH BKN070
     FM250100 17010KT 4SM -RA OVC045
     FM250400 24010KT 6SM -RA SCT007 OVC035
     FM250900 30014G20KT P6SM SCT015
     FM251100 32012KT P6SM SKC=

USA.gov is the U.S. government's official web portal to all federal, state and local government web resources and services.